Terminal Aerodrome Forecast
Issued by NWS

Home | Current Version | Previous Version | Text Only | Print | Product List | Glossary On
Versions: 1 2 3 4 5 6 7 8 9 10 11 12 13 14 15 16 17
423
FTUS43 KGRR 180840 AAA
TAFLAN
TAF AMD
KLAN 180840Z 1809/1906 26009KT P6SM OVC015
     FM181400 20008KT P6SM BKN150
     FM181900 18012G22KT P6SM BKN200
     FM190000 17011KT P6SM BKN200=

USA.gov is the U.S. government's official web portal to all federal, state and local government web resources and services.